createdAt,value
2019-05-30T00:01:33.639Z,7.13
2019-05-30T00:04:00.359Z,7.07
2019-05-30T00:06:26.346Z,6.94
2019-05-30T00:08:52.160Z,6.96
2019-05-30T00:11:18.017Z,7.01
2019-05-30T00:13:43.832Z,6.93
2019-05-30T00:16:09.709Z,6.95
2019-05-30T00:18:35.538Z,6.91
2019-05-30T00:21:01.361Z,6.86
2019-05-30T00:23:27.214Z,6.89
2019-05-30T00:25:53.078Z,6.63
2019-05-30T00:28:18.917Z,6.83
2019-05-30T00:30:44.750Z,6.79
2019-05-30T00:33:10.607Z,6.84
2019-05-30T00:35:36.451Z,6.58
2019-05-30T00:38:02.335Z,6.60
2019-05-30T00:40:28.153Z,6.56
2019-05-30T00:42:54.055Z,6.53
2019-05-30T00:45:21.411Z,6.47
2019-05-30T00:47:47.527Z,6.42
2019-05-30T00:50:13.352Z,6.51
2019-05-30T00:52:39.210Z,6.49
2019-05-30T00:55:07.443Z,6.47
2019-05-30T00:57:33.289Z,6.56
2019-05-30T00:59:59.113Z,6.31
2019-05-30T01:02:24.985Z,6.26
2019-05-30T01:04:50.840Z,6.10
2019-05-30T01:07:16.687Z,6.18
2019-05-30T01:09:42.513Z,6.23
2019-05-30T01:12:08.398Z,6.18
2019-05-30T01:14:34.242Z,5.84
2019-05-30T01:17:01.091Z,5.79
2019-05-30T01:19:26.911Z,5.88
2019-05-30T01:21:52.785Z,6.01
2019-05-30T01:24:18.610Z,6.00
2019-05-30T01:26:44.471Z,6.06
2019-05-30T01:29:10.319Z,6.17
2019-05-30T01:31:36.158Z,6.13
2019-05-30T01:34:01.983Z,5.97
2019-05-30T01:36:27.845Z,5.75
2019-05-30T01:38:53.682Z,5.65
2019-05-30T01:41:19.538Z,5.49
2019-05-30T01:43:45.353Z,5.70
2019-05-30T01:46:11.213Z,5.73
2019-05-30T01:48:37.095Z,5.62
2019-05-30T01:51:04.493Z,5.67
2019-05-30T01:53:30.467Z,5.07
2019-05-30T01:55:56.760Z,5.27
2019-05-30T01:58:22.607Z,5.03
2019-05-30T02:00:48.513Z,4.91
2019-05-30T02:03:14.760Z,5.00
2019-05-30T02:05:40.701Z,4.95
2019-05-30T02:08:07.267Z,4.83
2019-05-30T02:10:33.585Z,5.02
2019-05-30T02:12:59.439Z,5.01
2019-05-30T02:15:26.377Z,5.08
2019-05-30T02:17:52.244Z,5.07
2019-05-30T02:20:18.198Z,4.99
2019-05-30T02:22:44.056Z,4.81
2019-05-30T02:25:10.477Z,4.87
2019-05-30T02:27:36.337Z,4.85
2019-05-30T02:30:06.656Z,4.96
2019-05-30T02:32:32.829Z,4.84
2019-05-30T02:34:58.665Z,5.11
2019-05-30T02:37:24.500Z,5.08
2019-05-30T02:39:50.356Z,5.16
2019-05-30T02:42:16.206Z,4.50
2019-05-30T02:44:42.045Z,4.26
2019-05-30T02:47:09.538Z,4.26
2019-05-30T02:49:35.748Z,4.06
2019-05-30T02:52:02.638Z,4.06
2019-05-30T02:54:29.363Z,4.23
2019-05-30T02:56:55.189Z,4.21
2019-05-30T02:59:21.043Z,4.54
2019-05-30T03:02:00.066Z,4.67
2019-05-30T03:04:14.928Z,4.83
2019-05-30T03:06:41.100Z,4.86
2019-05-30T03:09:09.097Z,4.96
2019-05-30T03:11:35.095Z,5.01
2019-05-30T03:14:02.142Z,4.77
2019-05-30T03:16:28.801Z,4.59
2019-05-30T03:18:54.935Z,4.59
2019-05-30T03:21:20.787Z,4.90
2019-05-30T03:23:46.630Z,4.98
2019-05-30T03:26:15.446Z,4.65
2019-05-30T03:28:40.215Z,4.63
2019-05-30T03:31:14.043Z,4.04
2019-05-30T03:33:40.896Z,4.14
2019-05-30T03:36:06.260Z,4.19
2019-05-30T03:38:30.524Z,4.24
2019-05-30T03:40:56.363Z,4.34
2019-05-30T03:43:22.205Z,4.11
2019-05-30T03:45:48.038Z,4.38
2019-05-30T03:48:16.265Z,4.25
2019-05-30T03:50:45.555Z,4.78
2019-05-30T03:53:13.817Z,4.78
2019-05-30T03:55:41.277Z,4.82
2019-05-30T03:58:20.344Z,5.09
2019-05-30T04:01:00.310Z,5.22
2019-05-30T04:03:36.020Z,5.22
2019-05-30T04:06:07.273Z,5.12
2019-05-30T04:08:34.962Z,5.14
2019-05-30T04:11:03.508Z,5.14
2019-05-30T04:13:32.678Z,4.93
2019-05-30T04:15:58.538Z,5.27
2019-05-30T04:18:24.393Z,5.57
2019-05-30T04:20:50.198Z,5.83
2019-05-30T04:23:16.923Z,5.92
2019-05-30T04:25:43.501Z,6.10
2019-05-30T04:28:09.735Z,6.13
2019-05-30T04:30:35.710Z,6.21
2019-05-30T04:33:16.720Z,6.31
2019-05-30T04:35:29.304Z,6.50
2019-05-30T04:37:55.156Z,6.51
2019-05-30T04:40:21.016Z,6.53
2019-05-30T04:42:46.853Z,6.67
2019-05-30T04:45:13.678Z,6.81
2019-05-30T04:47:39.632Z,6.87
2019-05-30T04:50:06.666Z,6.90
2019-05-30T04:52:32.540Z,6.94
2019-05-30T04:54:58.368Z,6.95
2019-05-30T04:57:26.927Z,7.02
2019-05-30T04:59:52.106Z,6.88
2019-05-30T05:02:18.861Z,7.02
2019-05-30T05:04:45.717Z,7.17
2019-05-30T05:07:11.612Z,7.24
2019-05-30T05:09:37.469Z,7.29
2019-05-30T05:12:03.430Z,7.50
2019-05-30T05:14:29.308Z,7.56
2019-05-30T05:16:55.274Z,7.70
2019-05-30T05:19:22.418Z,7.88
2019-05-30T05:21:48.892Z,8.03
2019-05-30T05:24:15.403Z,8.15
2019-05-30T05:26:41.460Z,8.34
2019-05-30T05:29:07.289Z,8.34
2019-05-30T05:31:33.175Z,8.50
2019-05-30T05:33:58.995Z,8.61
2019-05-30T05:36:25.244Z,8.66
2019-05-30T05:38:51.215Z,8.94
2019-05-30T05:41:18.167Z,8.94
2019-05-30T05:43:44.118Z,9.09
2019-05-30T05:46:09.943Z,9.23
2019-05-30T05:48:35.805Z,9.40
2019-05-30T05:51:01.640Z,9.53
2019-05-30T05:53:27.499Z,9.63
2019-05-30T05:55:53.319Z,9.74
2019-05-30T05:58:19.222Z,9.94
2019-05-30T06:00:45.020Z,10.17
2019-05-30T06:03:10.867Z,10.13
2019-05-30T06:05:51.966Z,10.33
2019-05-30T06:08:04.506Z,10.78
2019-05-30T06:10:30.396Z,10.78
2019-05-30T06:12:56.270Z,10.93
2019-05-30T06:15:22.944Z,11.20
2019-05-30T06:17:48.875Z,11.23
2019-05-30T06:20:17.209Z,11.36
2019-05-30T06:22:43.279Z,11.44
2019-05-30T06:25:09.236Z,11.35
2019-05-30T06:27:35.085Z,11.21
2019-05-30T06:30:00.922Z,11.88
2019-05-30T06:32:26.877Z,12.10
2019-05-30T06:34:52.721Z,12.30
2019-05-30T06:37:19.249Z,12.57
2019-05-30T06:39:45.248Z,12.74
2019-05-30T06:42:11.102Z,12.93
2019-05-30T06:44:36.938Z,12.86
2019-05-30T06:47:02.889Z,12.97
2019-05-30T06:49:29.074Z,13.05
2019-05-30T06:51:55.042Z,13.13
2019-05-30T06:54:21.472Z,13.53
2019-05-30T06:56:47.836Z,13.89
2019-05-30T06:59:13.690Z,14.15
2019-05-30T07:01:39.550Z,14.14
2019-05-30T07:04:05.809Z,14.35
2019-05-30T07:06:33.460Z,14.35
2019-05-30T07:08:59.735Z,14.79
2019-05-30T07:11:26.725Z,14.96
2019-05-30T07:13:52.651Z,15.11
2019-05-30T07:16:18.504Z,15.15
2019-05-30T07:18:44.348Z,15.36
2019-05-30T07:21:10.187Z,15.55
2019-05-30T07:23:39.289Z,15.41
2019-05-30T07:26:03.934Z,15.26
2019-05-30T07:28:29.956Z,15.32
2019-05-30T07:30:55.877Z,15.52
2019-05-30T07:33:21.735Z,15.18
2019-05-30T07:35:47.570Z,15.22
2019-05-30T07:38:13.435Z,16.22
2019-05-30T07:40:39.411Z,16.13
2019-05-30T07:43:05.313Z,16.35
2019-05-30T07:45:31.209Z,15.77
2019-05-30T07:47:56.986Z,15.47
2019-05-30T07:50:23.732Z,15.93
2019-05-30T07:52:49.567Z,16.20
2019-05-30T07:55:15.513Z,16.44
2019-05-30T07:57:41.853Z,16.85
2019-05-30T08:00:12.657Z,17.17
2019-05-30T08:02:38.487Z,16.72
2019-05-30T08:05:22.421Z,16.94
2019-05-30T08:07:33.295Z,17.41
2019-05-30T08:09:59.131Z,17.18
2019-05-30T08:12:24.975Z,17.07
2019-05-30T08:14:50.851Z,17.29
2019-05-30T08:17:16.739Z,17.45
2019-05-30T08:19:42.623Z,17.55
2019-05-30T08:22:08.498Z,17.19
2019-05-30T08:24:34.542Z,17.59
2019-05-30T08:27:00.417Z,17.60
2019-05-30T08:29:32.116Z,17.34
2019-05-30T08:31:58.030Z,17.47
2019-05-30T08:34:23.889Z,17.20
2019-05-30T08:36:49.739Z,18.03
2019-05-30T08:39:15.604Z,18.06
2019-05-30T08:41:41.447Z,18.15
2019-05-30T08:44:07.322Z,17.68
2019-05-30T08:46:33.721Z,17.24
2019-05-30T08:49:01.861Z,18.02
2019-05-30T08:51:27.391Z,18.37
2019-05-30T08:53:53.245Z,18.29
2019-05-30T08:56:19.144Z,18.74
2019-05-30T08:58:45.022Z,18.57
2019-05-30T09:01:10.918Z,18.22
2019-05-30T09:03:38.471Z,18.52
2019-05-30T09:06:04.647Z,18.33
2019-05-30T09:08:30.545Z,18.94
2019-05-30T09:10:56.438Z,18.94
2019-05-30T09:13:22.327Z,19.16
2019-05-30T09:15:49.033Z,19.40
2019-05-30T09:18:15.005Z,19.00
2019-05-30T09:20:41.971Z,18.73
2019-05-30T09:23:08.389Z,18.76
2019-05-30T09:25:34.276Z,18.83
2019-05-30T09:28:00.181Z,19.00
2019-05-30T09:30:26.045Z,19.21
2019-05-30T09:32:51.919Z,19.22
2019-05-30T09:35:18.107Z,19.13
2019-05-30T09:37:45.688Z,18.79
2019-05-30T09:40:14.047Z,19.21
2019-05-30T09:42:41.222Z,19.40
2019-05-30T09:45:10.055Z,19.22
2019-05-30T09:47:36.054Z,19.41
2019-05-30T09:50:04.647Z,19.40
2019-05-30T09:52:30.671Z,19.53
2019-05-30T09:54:56.532Z,19.43
2019-05-30T09:57:22.468Z,19.45
2019-05-30T09:59:48.677Z,19.87
2019-05-30T10:02:16.020Z,19.83
2019-05-30T10:04:42.034Z,19.33
2019-05-30T10:07:09.391Z,19.01
2019-05-30T10:09:35.352Z,18.37
2019-05-30T10:12:01.661Z,18.70
2019-05-30T10:14:27.585Z,18.87
2019-05-30T10:16:56.523Z,19.64
2019-05-30T10:19:21.205Z,19.67
2019-05-30T10:21:47.220Z,19.88
2019-05-30T10:24:13.194Z,19.59
2019-05-30T10:26:39.084Z,19.52
2019-05-30T10:29:04.945Z,18.81
2019-05-30T10:31:30.905Z,19.10
2019-05-30T10:33:56.967Z,19.23
2019-05-30T10:36:22.950Z,19.47
2019-05-30T10:38:50.247Z,19.75
2019-05-30T10:41:16.507Z,19.23
2019-05-30T10:43:42.397Z,19.66
2019-05-30T10:46:08.253Z,19.99
2019-05-30T10:48:34.236Z,20.42
2019-05-30T10:51:00.121Z,20.36
2019-05-30T10:53:26.018Z,20.45
2019-05-30T10:55:53.583Z,20.46
2019-05-30T10:58:19.740Z,20.31
2019-05-30T11:00:53.883Z,20.44
2019-05-30T11:03:20.940Z,20.43
2019-05-30T11:06:05.513Z,21.16
2019-05-30T11:08:32.289Z,21.56
2019-05-30T11:10:58.149Z,20.87
2019-05-30T11:13:24.014Z,20.34
2019-05-30T11:15:51.498Z,20.59
2019-05-30T11:18:17.555Z,20.39
2019-05-30T11:20:43.729Z,20.45
2019-05-30T11:23:09.612Z,20.98
2019-05-30T11:25:35.614Z,20.76
2019-05-30T11:28:01.468Z,20.79
2019-05-30T11:30:27.624Z,21.17
2019-05-30T11:32:53.495Z,21.26
2019-05-30T11:35:19.494Z,20.43
2019-05-30T11:37:45.345Z,20.70
2019-05-30T11:40:11.543Z,20.96
2019-05-30T11:42:37.393Z,21.45
2019-05-30T11:45:05.385Z,21.64
2019-05-30T11:47:31.357Z,21.24
2019-05-30T11:49:57.748Z,21.73
2019-05-30T11:52:23.685Z,21.06
2019-05-30T11:54:49.861Z,21.71
2019-05-30T11:57:15.829Z,21.35
2019-05-30T11:59:41.690Z,20.94
2019-05-30T12:02:07.765Z,21.62
2019-05-30T12:04:33.647Z,21.38
2019-05-30T12:07:00.846Z,21.23
2019-05-30T12:09:26.893Z,21.62
2019-05-30T12:11:53.091Z,21.23
2019-05-30T12:14:21.338Z,21.75
2019-05-30T12:16:46.848Z,22.00
2019-05-30T12:19:12.729Z,22.16
2019-05-30T12:21:38.645Z,22.48
2019-05-30T12:24:04.612Z,22.57
2019-05-30T12:26:33.671Z,22.11
2019-05-30T12:28:58.287Z,22.09
2019-05-30T12:31:24.188Z,23.02
2019-05-30T12:33:50.162Z,23.77
2019-05-30T12:36:16.076Z,23.26
2019-05-30T12:38:42.068Z,22.99
2019-05-30T12:41:08.025Z,22.94
2019-05-30T12:43:33.917Z,23.16
2019-05-30T12:46:01.166Z,23.23
2019-05-30T12:48:27.179Z,23.46
2019-05-30T12:50:59.333Z,23.35
2019-05-30T12:53:25.707Z,23.45
2019-05-30T12:55:51.707Z,23.21
2019-05-30T12:58:18.038Z,23.63
2019-05-30T13:00:45.002Z,24.09
2019-05-30T13:03:12.775Z,23.66
2019-05-30T13:05:39.038Z,23.69
2019-05-30T13:08:17.557Z,23.38
2019-05-30T13:10:32.725Z,23.04
2019-05-30T13:12:59.619Z,21.96
2019-05-30T13:15:25.710Z,22.38
2019-05-30T13:17:51.580Z,22.84
2019-05-30T13:20:18.020Z,22.74
2019-05-30T13:22:43.910Z,22.92
2019-05-30T13:25:13.436Z,22.60
2019-05-30T13:27:39.418Z,22.68
2019-05-30T13:30:06.572Z,22.63
2019-05-30T13:32:32.456Z,21.51
2019-05-30T13:34:59.191Z,21.71
2019-05-30T13:37:25.429Z,21.80
2019-05-30T13:39:51.344Z,21.96
2019-05-30T13:42:17.227Z,22.66
2019-05-30T13:44:43.160Z,23.80
2019-05-30T13:47:09.114Z,23.82
2019-05-30T13:49:35.059Z,23.28
2019-05-30T13:52:00.984Z,23.60
2019-05-30T13:54:26.834Z,23.43
2019-05-30T13:56:52.729Z,23.65
2019-05-30T13:59:18.575Z,23.04
2019-05-30T14:01:44.474Z,23.75
2019-05-30T14:04:10.560Z,23.79
2019-05-30T14:06:36.504Z,23.29
2019-05-30T14:09:04.847Z,23.24
2019-05-30T14:11:30.701Z,23.77
2019-05-30T14:13:56.636Z,23.49
2019-05-30T14:16:22.564Z,23.40
2019-05-30T14:18:48.426Z,23.64
2019-05-30T14:21:14.292Z,23.91
2019-05-30T14:23:40.169Z,24.07
2019-05-30T14:26:07.313Z,23.80
2019-05-30T14:28:33.401Z,23.95
2019-05-30T14:30:59.293Z,23.49
2019-05-30T14:33:25.272Z,23.49
2019-05-30T14:35:51.164Z,23.16
2019-05-30T14:38:17.074Z,23.12
2019-05-30T14:40:43.045Z,23.62
2019-05-30T14:43:09.350Z,23.75
2019-05-30T14:45:35.762Z,22.59
2019-05-30T14:48:01.685Z,22.30
2019-05-30T14:50:27.688Z,22.45
2019-05-30T14:52:53.786Z,23.03
2019-05-30T14:55:19.797Z,22.63
2019-05-30T14:57:45.665Z,22.73
2019-05-30T15:00:17.509Z,22.70
2019-05-30T15:02:43.643Z,22.08
2019-05-30T15:05:09.955Z,22.62
2019-05-30T15:07:36.220Z,22.55
2019-05-30T15:10:04.527Z,22.87
2019-05-30T15:12:30.418Z,23.31
2019-05-30T15:14:58.178Z,23.37
2019-05-30T15:17:24.059Z,23.38
2019-05-30T15:19:50.244Z,23.29
2019-05-30T15:22:18.351Z,23.33
2019-05-30T15:24:43.888Z,23.79
2019-05-30T15:27:10.135Z,23.56
2019-05-30T15:29:36.039Z,23.33
2019-05-30T15:32:01.896Z,22.71
2019-05-30T15:34:27.816Z,22.26
2019-05-30T15:36:53.691Z,22.42
2019-05-30T15:39:32.368Z,23.02
2019-05-30T15:41:47.478Z,23.33
2019-05-30T15:44:13.648Z,23.21
2019-05-30T15:46:39.712Z,23.30
2019-05-30T15:49:05.621Z,22.90
2019-05-30T15:51:31.539Z,22.92
2019-05-30T15:53:57.409Z,22.97
2019-05-30T15:56:23.261Z,21.96
2019-05-30T15:58:53.188Z,22.44
2019-05-30T16:01:20.145Z,22.79
2019-05-30T16:03:46.194Z,22.34
2019-05-30T16:06:12.549Z,22.45
2019-05-30T16:08:38.469Z,22.57
2019-05-30T16:11:04.472Z,22.09
2019-05-30T16:13:30.366Z,21.78
2019-05-30T16:15:56.239Z,21.89
2019-05-30T16:18:22.131Z,21.95
2019-05-30T16:20:47.972Z,22.03
2019-05-30T16:23:14.554Z,21.98
2019-05-30T16:25:40.610Z,20.72
2019-05-30T16:28:06.651Z,20.98
2019-05-30T16:30:32.553Z,21.30
2019-05-30T16:32:58.449Z,21.09
2019-05-30T16:35:24.317Z,21.07
2019-05-30T16:37:50.185Z,20.79
2019-05-30T16:40:16.499Z,21.09
2019-05-30T16:42:42.406Z,21.27
2019-05-30T16:45:12.157Z,21.35
2019-05-30T16:47:38.037Z,21.00
2019-05-30T16:50:06.066Z,20.96
2019-05-30T16:52:31.938Z,20.17
2019-05-30T16:54:57.785Z,20.58
2019-05-30T16:57:23.722Z,20.54
2019-05-30T16:59:49.651Z,20.52
2019-05-30T17:02:16.844Z,20.53
2019-05-30T17:04:42.921Z,20.68
2019-05-30T17:07:08.804Z,20.34
2019-05-30T17:09:34.678Z,20.56
2019-05-30T17:12:00.559Z,20.69
2019-05-30T17:14:26.388Z,20.61
2019-05-30T17:16:52.231Z,20.27
2019-05-30T17:19:18.312Z,19.97
2019-05-30T17:21:44.265Z,19.64
2019-05-30T17:24:10.101Z,19.71
2019-05-30T17:26:35.967Z,19.67
2019-05-30T17:29:01.815Z,19.63
2019-05-30T17:31:28.648Z,19.89
2019-05-30T17:33:54.953Z,19.40
2019-05-30T17:36:20.803Z,19.34
2019-05-30T17:38:46.687Z,19.42
2019-05-30T17:41:12.536Z,19.43
2019-05-30T17:43:38.424Z,19.62
2019-05-30T17:46:07.626Z,19.60
2019-05-30T17:48:32.046Z,19.55
2019-05-30T17:50:57.907Z,19.60
2019-05-30T17:53:24.000Z,19.64
2019-05-30T17:55:49.935Z,19.52
2019-05-30T17:58:15.768Z,19.25
2019-05-30T18:00:41.750Z,19.52
2019-05-30T18:03:09.509Z,19.59
2019-05-30T18:05:37.156Z,19.77
2019-05-30T18:08:03.523Z,19.59
2019-05-30T18:10:29.425Z,19.76
2019-05-30T18:12:55.282Z,19.70
2019-05-30T18:15:24.876Z,19.33
2019-05-30T18:17:49.322Z,19.16
2019-05-30T18:20:16.617Z,19.18
2019-05-30T18:22:42.487Z,19.07
2019-05-30T18:25:09.331Z,18.93
2019-05-30T18:27:35.225Z,18.99
2019-05-30T18:30:01.067Z,19.09
2019-05-30T18:32:28.183Z,19.08
2019-05-30T18:34:57.309Z,18.88
2019-05-30T18:37:22.345Z,18.83
2019-05-30T18:39:48.550Z,18.77
2019-05-30T18:42:14.529Z,18.84
2019-05-30T18:44:40.411Z,18.63
2019-05-30T18:47:06.290Z,18.63
2019-05-30T18:49:33.086Z,18.63
2019-05-30T18:51:59.339Z,18.54
2019-05-30T18:54:26.561Z,18.34
2019-05-30T18:56:52.492Z,18.48
2019-05-30T18:59:18.354Z,18.68
2019-05-30T19:01:44.211Z,18.62
2019-05-30T19:04:10.128Z,18.56
2019-05-30T19:06:36.337Z,18.58
2019-05-30T19:09:04.584Z,18.36
2019-05-30T19:11:34.598Z,18.12
2019-05-30T19:13:58.212Z,17.91
2019-05-30T19:16:24.053Z,17.71
2019-05-30T19:18:50.038Z,17.72
2019-05-30T19:21:15.877Z,17.64
2019-05-30T19:23:41.748Z,17.87
2019-05-30T19:26:07.658Z,17.69
2019-05-30T19:28:34.567Z,17.58
2019-05-30T19:31:00.683Z,17.58
2019-05-30T19:33:26.723Z,17.58
2019-05-30T19:35:52.616Z,17.80
2019-05-30T19:38:18.503Z,17.93
2019-05-30T19:40:44.427Z,17.97
2019-05-30T19:43:10.289Z,17.60
2019-05-30T19:45:36.263Z,17.53
2019-05-30T19:48:02.235Z,17.36
2019-05-30T19:50:28.504Z,17.48
2019-05-30T19:52:54.387Z,17.44
2019-05-30T19:55:21.548Z,17.42
2019-05-30T19:57:48.496Z,17.09
2019-05-30T20:00:15.818Z,17.01
2019-05-30T20:02:41.669Z,16.76
2019-05-30T20:05:07.941Z,16.79
2019-05-30T20:07:34.610Z,16.64
2019-05-30T20:10:01.912Z,16.39
2019-05-30T20:12:28.243Z,16.28
2019-05-30T20:14:54.113Z,16.28
2019-05-30T20:17:19.982Z,16.33
2019-05-30T20:19:45.867Z,16.48
2019-05-30T20:22:11.740Z,16.71
2019-05-30T20:24:38.319Z,16.84
2019-05-30T20:27:04.213Z,16.88
2019-05-30T20:29:30.085Z,16.84
2019-05-30T20:31:55.950Z,16.97
2019-05-30T20:34:21.778Z,16.95
2019-05-30T20:36:47.672Z,16.52
2019-05-30T20:39:13.567Z,16.54
2019-05-30T20:41:40.772Z,16.29
2019-05-30T20:44:06.859Z,16.36
2019-05-30T20:46:32.753Z,16.23
2019-05-30T20:48:58.631Z,16.26
2019-05-30T20:51:24.636Z,16.38
2019-05-30T20:53:50.471Z,16.55
2019-05-30T20:56:16.381Z,16.48
2019-05-30T20:58:42.264Z,16.49
2019-05-30T21:01:08.138Z,16.57
2019-05-30T21:03:34.152Z,16.66
2019-05-30T21:06:00.113Z,16.72
2019-05-30T21:08:26.089Z,16.52
2019-05-30T21:10:53.229Z,16.35
2019-05-30T21:13:19.265Z,16.32
2019-05-30T21:15:45.761Z,16.37
2019-05-30T21:18:11.679Z,16.46
2019-05-30T21:20:37.858Z,16.58
2019-05-30T21:23:03.945Z,16.56
2019-05-30T21:25:29.949Z,16.42
2019-05-30T21:27:55.902Z,16.28
2019-05-30T21:30:21.777Z,16.05
2019-05-30T21:32:48.397Z,15.77
2019-05-30T21:35:15.149Z,15.63
2019-05-30T21:37:41.741Z,15.39
2019-05-30T21:40:08.167Z,15.47
2019-05-30T21:42:34.048Z,15.62
2019-05-30T21:44:59.911Z,15.64
2019-05-30T21:47:25.787Z,15.51
2019-05-30T21:49:51.682Z,15.58
2019-05-30T21:52:17.642Z,15.83
2019-05-30T21:54:43.871Z,16.10
2019-05-30T21:57:09.801Z,16.22
2019-05-30T21:59:35.647Z,16.19
2019-05-30T22:02:01.581Z,15.83
2019-05-30T22:04:27.444Z,15.58
2019-05-30T22:06:53.311Z,15.52
2019-05-30T22:09:19.170Z,15.66
2019-05-30T22:11:45.618Z,15.49
2019-05-30T22:14:12.407Z,15.45
2019-05-30T22:16:38.280Z,15.23
2019-05-30T22:19:04.242Z,15.29
2019-05-30T22:21:30.103Z,15.18
2019-05-30T22:23:56.409Z,15.52
2019-05-30T22:26:22.350Z,15.16
2019-05-30T22:28:48.440Z,15.04
2019-05-30T22:31:14.365Z,15.23
2019-05-30T22:33:40.220Z,15.38
2019-05-30T22:36:06.056Z,15.41
2019-05-30T22:38:31.924Z,15.38
2019-05-30T22:40:57.880Z,15.50
2019-05-30T22:43:25.564Z,15.21
2019-05-30T22:45:52.472Z,15.51
2019-05-30T22:48:18.445Z,15.31
2019-05-30T22:50:44.593Z,15.46
2019-05-30T22:53:10.453Z,15.58
2019-05-30T22:55:36.302Z,15.67
2019-05-30T22:58:02.253Z,15.72
2019-05-30T23:00:28.090Z,15.71
2019-05-30T23:02:54.134Z,15.63
2019-05-30T23:05:19.976Z,15.66
2019-05-30T23:07:45.870Z,15.60
2019-05-30T23:10:12.421Z,15.52
2019-05-30T23:12:38.255Z,15.53
2019-05-30T23:15:05.307Z,15.59
2019-05-30T23:17:31.153Z,15.62
2019-05-30T23:19:56.995Z,15.52
2019-05-30T23:22:22.848Z,15.37
2019-05-30T23:24:49.184Z,15.24
2019-05-30T23:27:15.127Z,15.42
2019-05-30T23:29:41.371Z,15.54
2019-05-30T23:32:07.216Z,15.44
2019-05-30T23:34:33.043Z,15.43
2019-05-30T23:36:58.888Z,15.53
2019-05-30T23:39:24.727Z,15.67
2019-05-30T23:41:51.029Z,15.56
2019-05-30T23:44:17.144Z,15.53
2019-05-30T23:46:43.004Z,15.37
2019-05-30T23:49:08.832Z,15.37
2019-05-30T23:51:34.683Z,15.45
2019-05-30T23:54:00.644Z,15.50
2019-05-30T23:56:26.484Z,15.61
2019-05-30T23:58:52.552Z,15.56
